sensor_id;sensor_type;location;lat;lon;timestamp;P1;durP1;ratioP1;P2;durP2;ratioP2
71042;SDS011;58696;52.134;5.500;2022-08-21T00:00:11;6.25;;;3.20;;
71042;SDS011;58696;52.134;5.500;2022-08-21T00:02:47;6.53;;;2.70;;
71042;SDS011;58696;52.134;5.500;2022-08-21T00:05:18;8.45;;;2.75;;
71042;SDS011;58696;52.134;5.500;2022-08-21T00:07:46;3.17;;;2.83;;
71042;SDS011;58696;52.134;5.500;2022-08-21T00:10:13;8.60;;;3.03;;
71042;SDS011;58696;52.134;5.500;2022-08-21T00:12:45;2.63;;;2.42;;
71042;SDS011;58696;52.134;5.500;2022-08-21T00:15:15;3.00;;;2.70;;
71042;SDS011;58696;52.134;5.500;2022-08-21T00:17:47;4.95;;;3.33;;
71042;SDS011;58696;52.134;5.500;2022-08-21T00:20:15;4.18;;;2.45;;
71042;SDS011;58696;52.134;5.500;2022-08-21T00:22:43;6.50;;;3.03;;
71042;SDS011;58696;52.134;5.500;2022-08-21T00:27:39;9.95;;;2.78;;
71042;SDS011;58696;52.134;5.500;2022-08-21T00:30:08;4.95;;;2.97;;
71042;SDS011;58696;52.134;5.500;2022-08-21T00:32:37;3.40;;;2.58;;
71042;SDS011;58696;52.134;5.500;2022-08-21T00:35:08;7.75;;;3.10;;
71042;SDS011;58696;52.134;5.500;2022-08-21T00:37:39;14.27;;;3.30;;
71042;SDS011;58696;52.134;5.500;2022-08-21T00:40:09;10.48;;;3.10;;
71042;SDS011;58696;52.134;5.500;2022-08-21T00:42:38;5.97;;;3.03;;
71042;SDS011;58696;52.134;5.500;2022-08-21T00:45:06;4.38;;;2.92;;
71042;SDS011;58696;52.134;5.500;2022-08-21T00:47:33;9.32;;;2.75;;
71042;SDS011;58696;52.134;5.500;2022-08-21T00:50:00;6.23;;;3.33;;
71042;SDS011;58696;52.134;5.500;2022-08-21T00:52:28;4.97;;;3.20;;
71042;SDS011;58696;52.134;5.500;2022-08-21T00:55:00;3.40;;;2.88;;
71042;SDS011;58696;52.134;5.500;2022-08-21T00:57:32;4.20;;;3.05;;
71042;SDS011;58696;52.134;5.500;2022-08-21T01:00:07;7.40;;;3.25;;
71042;SDS011;58696;52.134;5.500;2022-08-21T01:02:36;5.90;;;3.60;;
71042;SDS011;58696;52.134;5.500;2022-08-21T01:05:03;5.78;;;3.47;;
71042;SDS011;58696;52.134;5.500;2022-08-21T01:07:30;5.65;;;3.08;;
71042;SDS011;58696;52.134;5.500;2022-08-21T01:09:57;6.25;;;3.53;;
71042;SDS011;58696;52.134;5.500;2022-08-21T01:12:25;4.40;;;3.33;;
71042;SDS011;58696;52.134;5.500;2022-08-21T01:14:52;5.25;;;3.30;;
71042;SDS011;58696;52.134;5.500;2022-08-21T01:17:22;7.28;;;3.65;;
71042;SDS011;58696;52.134;5.500;2022-08-21T01:19:48;6.75;;;3.38;;
71042;SDS011;58696;52.134;5.500;2022-08-21T01:22:15;5.28;;;3.15;;
71042;SDS011;58696;52.134;5.500;2022-08-21T01:24:42;5.25;;;3.78;;
71042;SDS011;58696;52.134;5.500;2022-08-21T01:27:12;3.80;;;3.17;;
71042;SDS011;58696;52.134;5.500;2022-08-21T01:29:51;13.80;;;3.47;;
71042;SDS011;58696;52.134;5.500;2022-08-21T01:32:23;3.60;;;3.08;;
71042;SDS011;58696;52.134;5.500;2022-08-21T01:34:50;6.20;;;3.30;;
71042;SDS011;58696;52.134;5.500;2022-08-21T01:37:19;7.00;;;3.08;;
71042;SDS011;58696;52.134;5.500;2022-08-21T01:39:47;5.57;;;3.28;;
71042;SDS011;58696;52.134;5.500;2022-08-21T01:42:15;3.72;;;3.25;;
71042;SDS011;58696;52.134;5.500;2022-08-21T01:44:42;6.82;;;3.17;;
71042;SDS011;58696;52.134;5.500;2022-08-21T01:47:10;3.43;;;3.00;;
71042;SDS011;58696;52.134;5.500;2022-08-21T01:49:38;4.97;;;3.17;;
71042;SDS011;58696;52.134;5.500;2022-08-21T01:52:05;9.43;;;3.60;;
71042;SDS011;58696;52.134;5.500;2022-08-21T01:54:37;6.63;;;3.08;;
71042;SDS011;58696;52.134;5.500;2022-08-21T01:57:04;6.35;;;3.25;;
71042;SDS011;58696;52.134;5.500;2022-08-21T01:59:31;8.00;;;3.22;;
71042;SDS011;58696;52.134;5.500;2022-08-21T02:01:59;7.63;;;3.30;;
71042;SDS011;58696;52.134;5.500;2022-08-21T02:04:25;5.13;;;3.10;;
71042;SDS011;58696;52.134;5.500;2022-08-21T02:06:52;4.88;;;3.20;;
71042;SDS011;58696;52.134;5.500;2022-08-21T02:09:19;7.47;;;3.65;;
71042;SDS011;58696;52.134;5.500;2022-08-21T02:11:47;3.47;;;3.10;;
71042;SDS011;58696;52.134;5.500;2022-08-21T02:14:15;3.87;;;3.20;;
71042;SDS011;58696;52.134;5.500;2022-08-21T02:16:57;3.55;;;3.25;;
71042;SDS011;58696;52.134;5.500;2022-08-21T02:19:30;14.80;;;3.75;;
71042;SDS011;58696;52.134;5.500;2022-08-21T02:22:04;5.93;;;3.30;;
71042;SDS011;58696;52.134;5.500;2022-08-21T02:24:32;6.00;;;3.08;;
71042;SDS011;58696;52.134;5.500;2022-08-21T02:26:58;5.18;;;3.22;;
71042;SDS011;58696;52.134;5.500;2022-08-21T02:29:25;4.15;;;3.40;;
71042;SDS011;58696;52.134;5.500;2022-08-21T02:31:52;5.03;;;3.70;;
71042;SDS011;58696;52.134;5.500;2022-08-21T02:34:19;7.47;;;3.53;;
71042;SDS011;58696;52.134;5.500;2022-08-21T02:36:46;5.20;;;3.22;;
71042;SDS011;58696;52.134;5.500;2022-08-21T02:39:24;7.03;;;3.40;;
71042;SDS011;58696;52.134;5.500;2022-08-21T02:41:52;6.85;;;3.40;;
71042;SDS011;58696;52.134;5.500;2022-08-21T02:44:19;5.57;;;3.55;;
71042;SDS011;58696;52.134;5.500;2022-08-21T02:46:46;4.57;;;3.20;;
71042;SDS011;58696;52.134;5.500;2022-08-21T02:49:12;5.40;;;3.40;;
71042;SDS011;58696;52.134;5.500;2022-08-21T02:51:39;7.10;;;3.08;;
71042;SDS011;58696;52.134;5.500;2022-08-21T02:54:06;4.38;;;2.80;;
71042;SDS011;58696;52.134;5.500;2022-08-21T02:56:36;5.78;;;2.97;;
71042;SDS011;58696;52.134;5.500;2022-08-21T02:59:05;4.90;;;3.30;;
71042;SDS011;58696;52.134;5.500;2022-08-21T03:01:31;4.95;;;3.33;;
71042;SDS011;58696;52.134;5.500;2022-08-21T03:03:58;4.60;;;2.75;;
71042;SDS011;58696;52.134;5.500;2022-08-21T03:06:25;3.78;;;3.05;;
71042;SDS011;58696;52.134;5.500;2022-08-21T03:08:52;5.40;;;2.90;;
71042;SDS011;58696;52.134;5.500;2022-08-21T03:11:19;3.28;;;2.90;;
71042;SDS011;58696;52.134;5.500;2022-08-21T03:13:48;4.80;;;2.92;;
71042;SDS011;58696;52.134;5.500;2022-08-21T03:16:14;5.72;;;2.83;;
71042;SDS011;58696;52.134;5.500;2022-08-21T03:18:46;4.85;;;3.15;;
71042;SDS011;58696;52.134;5.500;2022-08-21T03:21:13;5.03;;;2.83;;
71042;SDS011;58696;52.134;5.500;2022-08-21T03:23:41;4.78;;;3.28;;
71042;SDS011;58696;52.134;5.500;2022-08-21T03:26:08;7.40;;;3.63;;
71042;SDS011;58696;52.134;5.500;2022-08-21T03:28:36;6.80;;;3.40;;
71042;SDS011;58696;52.134;5.500;2022-08-21T03:31:03;3.55;;;2.88;;
71042;SDS011;58696;52.134;5.500;2022-08-21T03:33:31;4.75;;;3.15;;
71042;SDS011;58696;52.134;5.500;2022-08-21T03:36:00;5.10;;;3.15;;
71042;SDS011;58696;52.134;5.500;2022-08-21T03:38:33;5.18;;;3.65;;
71042;SDS011;58696;52.134;5.500;2022-08-21T03:41:04;6.00;;;3.30;;
71042;SDS011;58696;52.134;5.500;2022-08-21T03:45:59;5.70;;;3.20;;
71042;SDS011;58696;52.134;5.500;2022-08-21T03:48:27;4.43;;;3.40;;
71042;SDS011;58696;52.134;5.500;2022-08-21T03:50:54;5.55;;;3.97;;
71042;SDS011;58696;52.134;5.500;2022-08-21T03:53:21;7.50;;;4.05;;
71042;SDS011;58696;52.134;5.500;2022-08-21T03:55:49;7.13;;;3.90;;
71042;SDS011;58696;52.134;5.500;2022-08-21T03:58:20;5.30;;;3.40;;
71042;SDS011;58696;52.134;5.500;2022-08-21T04:00:50;6.68;;;3.58;;
71042;SDS011;58696;52.134;5.500;2022-08-21T04:03:20;6.18;;;3.80;;
71042;SDS011;58696;52.134;5.500;2022-08-21T04:05:50;6.72;;;3.55;;
71042;SDS011;58696;52.134;5.500;2022-08-21T04:08:19;8.52;;;4.03;;
71042;SDS011;58696;52.134;5.500;2022-08-21T04:10:47;6.13;;;3.97;;
71042;SDS011;58696;52.134;5.500;2022-08-21T04:13:18;13.32;;;3.95;;
71042;SDS011;58696;52.134;5.500;2022-08-21T04:15:44;6.28;;;4.00;;
71042;SDS011;58696;52.134;5.500;2022-08-21T04:18:11;7.65;;;4.05;;
71042;SDS011;58696;52.134;5.500;2022-08-21T04:20:39;6.13;;;4.07;;
71042;SDS011;58696;52.134;5.500;2022-08-21T04:25:34;5.90;;;3.97;;
71042;SDS011;58696;52.134;5.500;2022-08-21T04:28:01;7.93;;;4.00;;
71042;SDS011;58696;52.134;5.500;2022-08-21T04:30:29;10.68;;;4.30;;
71042;SDS011;58696;52.134;5.500;2022-08-21T04:32:58;7.07;;;4.10;;
71042;SDS011;58696;52.134;5.500;2022-08-21T04:35:25;9.77;;;4.50;;
71042;SDS011;58696;52.134;5.500;2022-08-21T04:37:54;6.05;;;4.15;;
71042;SDS011;58696;52.134;5.500;2022-08-21T04:40:21;8.23;;;4.07;;
71042;SDS011;58696;52.134;5.500;2022-08-21T04:42:57;5.30;;;3.97;;
71042;SDS011;58696;52.134;5.500;2022-08-21T04:45:38;7.22;;;4.03;;
71042;SDS011;58696;52.134;5.500;2022-08-21T04:48:07;9.57;;;4.05;;
71042;SDS011;58696;52.134;5.500;2022-08-21T04:53:45;8.63;;;4.20;;
71042;SDS011;58696;52.134;5.500;2022-08-21T04:56:21;7.13;;;4.07;;
71042;SDS011;58696;52.134;5.500;2022-08-21T04:58:58;12.32;;;4.63;;
71042;SDS011;58696;52.134;5.500;2022-08-21T05:01:32;7.35;;;4.32;;
71042;SDS011;58696;52.134;5.500;2022-08-21T05:04:02;7.13;;;4.75;;
71042;SDS011;58696;52.134;5.500;2022-08-21T05:06:33;6.68;;;4.50;;
71042;SDS011;58696;52.134;5.500;2022-08-21T05:09:03;11.30;;;5.43;;
71042;SDS011;58696;52.134;5.500;2022-08-21T05:11:31;8.38;;;5.28;;
71042;SDS011;58696;52.134;5.500;2022-08-21T05:13:59;13.55;;;5.50;;
71042;SDS011;58696;52.134;5.500;2022-08-21T05:16:25;10.70;;;4.95;;
71042;SDS011;58696;52.134;5.500;2022-08-21T05:19:02;10.90;;;5.25;;
71042;SDS011;58696;52.134;5.500;2022-08-21T05:21:30;12.63;;;5.65;;
71042;SDS011;58696;52.134;5.500;2022-08-21T05:23:57;7.22;;;4.70;;
71042;SDS011;58696;52.134;5.500;2022-08-21T05:26:25;6.47;;;4.72;;
71042;SDS011;58696;52.134;5.500;2022-08-21T05:28:51;12.18;;;4.95;;
71042;SDS011;58696;52.134;5.500;2022-08-21T05:31:18;8.32;;;4.95;;
71042;SDS011;58696;52.134;5.500;2022-08-21T05:33:45;6.30;;;4.22;;
71042;SDS011;58696;52.134;5.500;2022-08-21T05:36:12;10.15;;;5.30;;
71042;SDS011;58696;52.134;5.500;2022-08-21T05:38:38;8.63;;;4.70;;
71042;SDS011;58696;52.134;5.500;2022-08-21T05:41:09;6.90;;;5.03;;
71042;SDS011;58696;52.134;5.500;2022-08-21T05:43:35;4.97;;;4.47;;
71042;SDS011;58696;52.134;5.500;2022-08-21T05:46:06;9.85;;;4.90;;
71042;SDS011;58696;52.134;5.500;2022-08-21T05:48:34;11.85;;;5.20;;
71042;SDS011;58696;52.134;5.500;2022-08-21T05:51:09;9.02;;;4.53;;
71042;SDS011;58696;52.134;5.500;2022-08-21T05:53:39;9.00;;;4.70;;
71042;SDS011;58696;52.134;5.500;2022-08-21T05:56:08;6.72;;;4.68;;
71042;SDS011;58696;52.134;5.500;2022-08-21T05:58:38;7.10;;;4.60;;
71042;SDS011;58696;52.134;5.500;2022-08-21T06:01:05;9.73;;;4.63;;
71042;SDS011;58696;52.134;5.500;2022-08-21T06:03:36;10.82;;;4.68;;
71042;SDS011;58696;52.134;5.500;2022-08-21T06:06:06;10.13;;;4.80;;
71042;SDS011;58696;52.134;5.500;2022-08-21T06:08:35;9.75;;;4.82;;
71042;SDS011;58696;52.134;5.500;2022-08-21T06:11:02;8.48;;;4.50;;
71042;SDS011;58696;52.134;5.500;2022-08-21T06:13:31;18.58;;;5.75;;
71042;SDS011;58696;52.134;5.500;2022-08-21T06:16:03;10.70;;;5.55;;
71042;SDS011;58696;52.134;5.500;2022-08-21T06:18:49;6.13;;;4.35;;
71042;SDS011;58696;52.134;5.500;2022-08-21T06:21:19;14.75;;;5.65;;
71042;SDS011;58696;52.134;5.500;2022-08-21T06:23:46;13.07;;;4.87;;
71042;SDS011;58696;52.134;5.500;2022-08-21T06:26:13;9.98;;;4.80;;
71042;SDS011;58696;52.134;5.500;2022-08-21T06:28:41;14.95;;;5.63;;
71042;SDS011;58696;52.134;5.500;2022-08-21T06:31:19;15.00;;;5.32;;
71042;SDS011;58696;52.134;5.500;2022-08-21T06:33:48;12.35;;;4.97;;
71042;SDS011;58696;52.134;5.500;2022-08-21T06:36:17;9.45;;;5.18;;
71042;SDS011;58696;52.134;5.500;2022-08-21T06:38:47;11.30;;;5.13;;
71042;SDS011;58696;52.134;5.500;2022-08-21T06:41:17;12.13;;;5.60;;
71042;SDS011;58696;52.134;5.500;2022-08-21T06:43:44;7.72;;;5.00;;
71042;SDS011;58696;52.134;5.500;2022-08-21T06:46:13;10.30;;;4.97;;
71042;SDS011;58696;52.134;5.500;2022-08-21T06:48:40;8.60;;;4.93;;
71042;SDS011;58696;52.134;5.500;2022-08-21T06:51:09;9.57;;;5.63;;
71042;SDS011;58696;52.134;5.500;2022-08-21T06:53:35;14.20;;;5.03;;
71042;SDS011;58696;52.134;5.500;2022-08-21T06:56:02;12.82;;;4.57;;
71042;SDS011;58696;52.134;5.500;2022-08-21T06:58:29;12.90;;;5.80;;
71042;SDS011;58696;52.134;5.500;2022-08-21T07:00:57;7.15;;;5.20;;
71042;SDS011;58696;52.134;5.500;2022-08-21T07:03:31;8.15;;;4.30;;
71042;SDS011;58696;52.134;5.500;2022-08-21T07:05:59;10.52;;;5.03;;
71042;SDS011;58696;52.134;5.500;2022-08-21T07:08:27;11.60;;;4.70;;
71042;SDS011;58696;52.134;5.500;2022-08-21T07:10:55;9.48;;;4.57;;
71042;SDS011;58696;52.134;5.500;2022-08-21T07:13:23;15.25;;;5.05;;
71042;SDS011;58696;52.134;5.500;2022-08-21T07:15:52;15.55;;;4.97;;
71042;SDS011;58696;52.134;5.500;2022-08-21T07:18:19;10.77;;;5.28;;
71042;SDS011;58696;52.134;5.500;2022-08-21T07:20:48;12.43;;;5.35;;
71042;SDS011;58696;52.134;5.500;2022-08-21T07:26:23;18.90;;;4.65;;
71042;SDS011;58696;52.134;5.500;2022-08-21T07:28:51;9.18;;;3.97;;
71042;SDS011;58696;52.134;5.500;2022-08-21T07:31:19;22.30;;;5.13;;
71042;SDS011;58696;52.134;5.500;2022-08-21T07:33:50;14.40;;;4.70;;
71042;SDS011;58696;52.134;5.500;2022-08-21T07:36:17;11.65;;;4.53;;
71042;SDS011;58696;52.134;5.500;2022-08-21T07:38:44;9.20;;;4.55;;
71042;SDS011;58696;52.134;5.500;2022-08-21T07:41:14;9.02;;;4.25;;
71042;SDS011;58696;52.134;5.500;2022-08-21T07:43:43;12.63;;;4.65;;
71042;SDS011;58696;52.134;5.500;2022-08-21T07:46:11;10.35;;;4.13;;
71042;SDS011;58696;52.134;5.500;2022-08-21T07:48:38;11.10;;;3.60;;
71042;SDS011;58696;52.134;5.500;2022-08-21T07:51:09;11.77;;;3.70;;
71042;SDS011;58696;52.134;5.500;2022-08-21T07:53:42;14.27;;;3.97;;
71042;SDS011;58696;52.134;5.500;2022-08-21T07:56:13;11.30;;;3.97;;
71042;SDS011;58696;52.134;5.500;2022-08-21T07:58:41;9.30;;;3.72;;
71042;SDS011;58696;52.134;5.500;2022-08-21T08:01:07;13.45;;;3.83;;
71042;SDS011;58696;52.134;5.500;2022-08-21T08:03:34;10.73;;;3.42;;
71042;SDS011;58696;52.134;5.500;2022-08-21T08:08:30;13.07;;;3.45;;
71042;SDS011;58696;52.134;5.500;2022-08-21T08:10:57;12.32;;;3.53;;
71042;SDS011;58696;52.134;5.500;2022-08-21T08:13:25;10.95;;;3.22;;
71042;SDS011;58696;52.134;5.500;2022-08-21T08:15:52;15.65;;;4.22;;
71042;SDS011;58696;52.134;5.500;2022-08-21T08:18:22;11.07;;;3.35;;
71042;SDS011;58696;52.134;5.500;2022-08-21T08:20:49;11.57;;;3.42;;
71042;SDS011;58696;52.134;5.500;2022-08-21T08:23:15;11.00;;;3.80;;
71042;SDS011;58696;52.134;5.500;2022-08-21T08:25:42;14.00;;;3.33;;
71042;SDS011;58696;52.134;5.500;2022-08-21T08:28:08;10.15;;;3.75;;
71042;SDS011;58696;52.134;5.500;2022-08-21T08:30:42;12.18;;;3.08;;
71042;SDS011;58696;52.134;5.500;2022-08-21T08:33:10;7.13;;;2.97;;
71042;SDS011;58696;52.134;5.500;2022-08-21T08:35:37;11.00;;;2.78;;
71042;SDS011;58696;52.134;5.500;2022-08-21T08:38:04;8.63;;;3.08;;
71042;SDS011;58696;52.134;5.500;2022-08-21T08:40:39;11.55;;;3.05;;
71042;SDS011;58696;52.134;5.500;2022-08-21T08:43:11;10.70;;;3.17;;
71042;SDS011;58696;52.134;5.500;2022-08-21T08:45:40;11.32;;;3.38;;
71042;SDS011;58696;52.134;5.500;2022-08-21T08:48:12;9.00;;;3.15;;
71042;SDS011;58696;52.134;5.500;2022-08-21T08:50:54;11.57;;;3.15;;
71042;SDS011;58696;52.134;5.500;2022-08-21T08:53:34;12.07;;;3.20;;
71042;SDS011;58696;52.134;5.500;2022-08-21T08:56:12;8.00;;;3.05;;
71042;SDS011;58696;52.134;5.500;2022-08-21T09:01:11;11.18;;;2.88;;
71042;SDS011;58696;52.134;5.500;2022-08-21T09:03:45;10.73;;;2.75;;
71042;SDS011;58696;52.134;5.500;2022-08-21T09:11:45;7.03;;;2.63;;
71042;SDS011;58696;52.134;5.500;2022-08-21T09:20:41;9.93;;;2.33;;
71042;SDS011;58696;52.134;5.500;2022-08-21T09:28:39;9.15;;;2.50;;
71042;SDS011;58696;52.134;5.500;2022-08-21T09:31:16;8.85;;;2.47;;
71042;SDS011;58696;52.134;5.500;2022-08-21T09:33:57;9.65;;;2.72;;
71042;SDS011;58696;52.134;5.500;2022-08-21T09:36:28;10.15;;;2.45;;
71042;SDS011;58696;52.134;5.500;2022-08-21T09:39:01;11.73;;;2.53;;
71042;SDS011;58696;52.134;5.500;2022-08-21T09:41:32;8.88;;;3.10;;
71042;SDS011;58696;52.134;5.500;2022-08-21T09:44:02;9.90;;;3.25;;
71042;SDS011;58696;52.134;5.500;2022-08-21T09:46:32;7.18;;;2.53;;
71042;SDS011;58696;52.134;5.500;2022-08-21T09:49:02;5.88;;;2.13;;
71042;SDS011;58696;52.134;5.500;2022-08-21T09:51:35;9.35;;;2.95;;
71042;SDS011;58696;52.134;5.500;2022-08-21T09:56:54;13.05;;;2.42;;
71042;SDS011;58696;52.134;5.500;2022-08-21T09:59:45;5.25;;;2.10;;
71042;SDS011;58696;52.134;5.500;2022-08-21T10:02:25;9.20;;;2.25;;
71042;SDS011;58696;52.134;5.500;2022-08-21T10:04:59;8.43;;;3.20;;
71042;SDS011;58696;52.134;5.500;2022-08-21T10:07:31;5.75;;;2.20;;
71042;SDS011;58696;52.134;5.500;2022-08-21T10:09:59;12.55;;;3.55;;
71042;SDS011;58696;52.134;5.500;2022-08-21T10:12:31;13.82;;;3.60;;
71042;SDS011;58696;52.134;5.500;2022-08-21T10:15:20;8.52;;;2.53;;
71042;SDS011;58696;52.134;5.500;2022-08-21T10:18:12;5.72;;;2.05;;
71042;SDS011;58696;52.134;5.500;2022-08-21T10:24:14;7.45;;;2.28;;
71042;SDS011;58696;52.134;5.500;2022-08-21T10:30:13;9.95;;;2.15;;
71042;SDS011;58696;52.134;5.500;2022-08-21T10:35:26;8.38;;;2.22;;
71042;SDS011;58696;52.134;5.500;2022-08-21T10:44:16;9.48;;;2.30;;
71042;SDS011;58696;52.134;5.500;2022-08-21T10:49:51;7.72;;;1.90;;
71042;SDS011;58696;52.134;5.500;2022-08-21T10:55:04;7.82;;;2.35;;
71042;SDS011;58696;52.134;5.500;2022-08-21T10:57:44;6.28;;;1.83;;
71042;SDS011;58696;52.134;5.500;2022-08-21T11:00:18;4.93;;;1.92;;
71042;SDS011;58696;52.134;5.500;2022-08-21T11:03:04;5.60;;;1.83;;
71042;SDS011;58696;52.134;5.500;2022-08-21T11:08:22;7.30;;;1.98;;
71042;SDS011;58696;52.134;5.500;2022-08-21T11:11:10;4.97;;;1.63;;
71042;SDS011;58696;52.134;5.500;2022-08-21T11:13:58;12.27;;;3.42;;
71042;SDS011;58696;52.134;5.500;2022-08-21T11:17:09;8.00;;;2.35;;
71042;SDS011;58696;52.134;5.500;2022-08-21T11:22:26;8.52;;;1.92;;
71042;SDS011;58696;52.134;5.500;2022-08-21T11:25:44;4.85;;;1.50;;
71042;SDS011;58696;52.134;5.500;2022-08-21T11:28:06;8.52;;;1.85;;
71042;SDS011;58696;52.134;5.500;2022-08-21T11:31:02;5.30;;;1.60;;
71042;SDS011;58696;52.134;5.500;2022-08-21T11:33:53;8.93;;;2.58;;
71042;SDS011;58696;52.134;5.500;2022-08-21T11:36:43;3.15;;;1.48;;
71042;SDS011;58696;52.134;5.500;2022-08-21T11:39:30;4.90;;;1.63;;
71042;SDS011;58696;52.134;5.500;2022-08-21T11:42:18;4.45;;;1.85;;
71042;SDS011;58696;52.134;5.500;2022-08-21T11:48:27;5.88;;;1.52;;
71042;SDS011;58696;52.134;5.500;2022-08-21T11:50:38;6.47;;;2.15;;
71042;SDS011;58696;52.134;5.500;2022-08-21T11:53:18;8.43;;;2.45;;
71042;SDS011;58696;52.134;5.500;2022-08-21T11:55:58;5.45;;;2.05;;
71042;SDS011;58696;52.134;5.500;2022-08-21T11:58:32;5.30;;;1.60;;
71042;SDS011;58696;52.134;5.500;2022-08-21T12:01:03;5.25;;;2.00;;
71042;SDS011;58696;52.134;5.500;2022-08-21T12:03:36;6.28;;;1.98;;
71042;SDS011;58696;52.134;5.500;2022-08-21T12:08:36;6.30;;;2.00;;
71042;SDS011;58696;52.134;5.500;2022-08-21T12:11:06;6.47;;;1.70;;
71042;SDS011;58696;52.134;5.500;2022-08-21T12:13:58;7.30;;;1.63;;
71042;SDS011;58696;52.134;5.500;2022-08-21T12:16:29;7.88;;;2.25;;
71042;SDS011;58696;52.134;5.500;2022-08-21T12:19:06;3.92;;;1.65;;
71042;SDS011;58696;52.134;5.500;2022-08-21T12:21:58;6.03;;;2.08;;
71042;SDS011;58696;52.134;5.500;2022-08-21T12:24:42;7.70;;;2.25;;
71042;SDS011;58696;52.134;5.500;2022-08-21T12:29:54;12.35;;;2.67;;
71042;SDS011;58696;52.134;5.500;2022-08-21T12:32:29;6.88;;;2.20;;
71042;SDS011;58696;52.134;5.500;2022-08-21T12:37:56;8.75;;;2.03;;
71042;SDS011;58696;52.134;5.500;2022-08-21T12:40:32;5.47;;;2.10;;
71042;SDS011;58696;52.134;5.500;2022-08-21T12:43:16;8.70;;;2.13;;
71042;SDS011;58696;52.134;5.500;2022-08-21T12:45:48;6.68;;;2.22;;
71042;SDS011;58696;52.134;5.500;2022-08-21T12:51:05;15.05;;;3.05;;
71042;SDS011;58696;52.134;5.500;2022-08-21T12:53:53;4.90;;;2.03;;
71042;SDS011;58696;52.134;5.500;2022-08-21T12:56:29;7.32;;;2.03;;
71042;SDS011;58696;52.134;5.500;2022-08-21T12:59:01;4.63;;;1.90;;
71042;SDS011;58696;52.134;5.500;2022-08-21T13:04:12;7.80;;;1.98;;
71042;SDS011;58696;52.134;5.500;2022-08-21T13:06:45;6.25;;;1.98;;
71042;SDS011;58696;52.134;5.500;2022-08-21T13:09:18;6.88;;;2.03;;
71042;SDS011;58696;52.134;5.500;2022-08-21T13:11:49;5.95;;;1.80;;
71042;SDS011;58696;52.134;5.500;2022-08-21T13:14:23;6.63;;;1.95;;
71042;SDS011;58696;52.134;5.500;2022-08-21T13:16:55;6.78;;;2.00;;
71042;SDS011;58696;52.134;5.500;2022-08-21T13:19:26;6.57;;;1.77;;
71042;SDS011;58696;52.134;5.500;2022-08-21T13:21:53;4.47;;;1.55;;
71042;SDS011;58696;52.134;5.500;2022-08-21T13:24:33;6.75;;;1.88;;
71042;SDS011;58696;52.134;5.500;2022-08-21T13:27:22;4.80;;;1.90;;
71042;SDS011;58696;52.134;5.500;2022-08-21T13:32:59;3.28;;;1.60;;
71042;SDS011;58696;52.134;5.500;2022-08-21T13:37:56;3.95;;;1.52;;
71042;SDS011;58696;52.134;5.500;2022-08-21T13:40:29;4.82;;;1.80;;
71042;SDS011;58696;52.134;5.500;2022-08-21T13:43:11;6.20;;;2.10;;
71042;SDS011;58696;52.134;5.500;2022-08-21T13:45:42;7.75;;;2.30;;
71042;SDS011;58696;52.134;5.500;2022-08-21T13:48:13;10.32;;;2.33;;
71042;SDS011;58696;52.134;5.500;2022-08-21T13:50:41;7.25;;;2.17;;
71042;SDS011;58696;52.134;5.500;2022-08-21T13:53:23;5.47;;;1.60;;
71042;SDS011;58696;52.134;5.500;2022-08-21T13:56:00;6.28;;;1.85;;
71042;SDS011;58696;52.134;5.500;2022-08-21T14:00:57;5.28;;;2.05;;
71042;SDS011;58696;52.134;5.500;2022-08-21T14:03:41;5.93;;;2.00;;
71042;SDS011;58696;52.134;5.500;2022-08-21T14:06:44;4.28;;;1.73;;
71042;SDS011;58696;52.134;5.500;2022-08-21T14:09:08;5.03;;;1.70;;
71042;SDS011;58696;52.134;5.500;2022-08-21T14:11:56;7.80;;;2.33;;
71042;SDS011;58696;52.134;5.500;2022-08-21T14:14:26;3.83;;;2.30;;
71042;SDS011;58696;52.134;5.500;2022-08-21T14:16:58;4.85;;;1.95;;
71042;SDS011;58696;52.134;5.500;2022-08-21T14:19:48;4.85;;;1.90;;
71042;SDS011;58696;52.134;5.500;2022-08-21T14:25:07;6.03;;;2.05;;
71042;SDS011;58696;52.134;5.500;2022-08-21T14:27:40;3.00;;;1.55;;
71042;SDS011;58696;52.134;5.500;2022-08-21T14:30:17;9.70;;;2.47;;
71042;SDS011;58696;52.134;5.500;2022-08-21T14:32:46;6.22;;;1.95;;
71042;SDS011;58696;52.134;5.500;2022-08-21T14:35:15;5.80;;;2.67;;
71042;SDS011;58696;52.134;5.500;2022-08-21T14:37:44;6.15;;;2.10;;
71042;SDS011;58696;52.134;5.500;2022-08-21T14:40:12;5.68;;;2.30;;
71042;SDS011;58696;52.134;5.500;2022-08-21T14:42:41;4.07;;;1.70;;
71042;SDS011;58696;52.134;5.500;2022-08-21T14:45:19;7.47;;;3.22;;
71042;SDS011;58696;52.134;5.500;2022-08-21T14:47:55;6.45;;;2.63;;
71042;SDS011;58696;52.134;5.500;2022-08-21T14:50:24;8.02;;;2.50;;
71042;SDS011;58696;52.134;5.500;2022-08-21T14:52:53;5.57;;;1.98;;
71042;SDS011;58696;52.134;5.500;2022-08-21T14:55:25;7.20;;;2.15;;
71042;SDS011;58696;52.134;5.500;2022-08-21T14:57:53;9.98;;;2.88;;
71042;SDS011;58696;52.134;5.500;2022-08-21T15:00:24;9.13;;;2.35;;
71042;SDS011;58696;52.134;5.500;2022-08-21T15:03:00;9.48;;;2.17;;
71042;SDS011;58696;52.134;5.500;2022-08-21T15:05:27;8.65;;;2.15;;
71042;SDS011;58696;52.134;5.500;2022-08-21T15:07:59;8.30;;;2.53;;
71042;SDS011;58696;52.134;5.500;2022-08-21T15:12:53;3.42;;;1.55;;
71042;SDS011;58696;52.134;5.500;2022-08-21T15:15:21;10.65;;;2.78;;
71042;SDS011;58696;52.134;5.500;2022-08-21T15:17:48;7.95;;;3.50;;
71042;SDS011;58696;52.134;5.500;2022-08-21T15:20:17;9.20;;;2.47;;
71042;SDS011;58696;52.134;5.500;2022-08-21T15:22:44;5.78;;;1.60;;
71042;SDS011;58696;52.134;5.500;2022-08-21T15:25:11;5.47;;;1.70;;
71042;SDS011;58696;52.134;5.500;2022-08-21T15:27:41;6.15;;;2.13;;
71042;SDS011;58696;52.134;5.500;2022-08-21T15:30:08;7.30;;;1.80;;
71042;SDS011;58696;52.134;5.500;2022-08-21T15:32:37;9.05;;;2.00;;
71042;SDS011;58696;52.134;5.500;2022-08-21T15:35:05;4.43;;;2.42;;
71042;SDS011;58696;52.134;5.500;2022-08-21T15:37:35;5.20;;;2.05;;
71042;SDS011;58696;52.134;5.500;2022-08-21T15:40:02;5.70;;;1.83;;
71042;SDS011;58696;52.134;5.500;2022-08-21T15:42:31;6.35;;;1.92;;
71042;SDS011;58696;52.134;5.500;2022-08-21T15:44:57;4.50;;;1.77;;
71042;SDS011;58696;52.134;5.500;2022-08-21T15:47:30;4.22;;;2.08;;
71042;SDS011;58696;52.134;5.500;2022-08-21T15:50:02;7.60;;;2.13;;
71042;SDS011;58696;52.134;5.500;2022-08-21T15:52:31;4.57;;;1.83;;
71042;SDS011;58696;52.134;5.500;2022-08-21T15:54:58;8.70;;;1.65;;
71042;SDS011;58696;52.134;5.500;2022-08-21T15:57:29;3.60;;;1.55;;
71042;SDS011;58696;52.134;5.500;2022-08-21T16:00:13;10.38;;;1.70;;
71042;SDS011;58696;52.134;5.500;2022-08-21T16:02:48;9.95;;;1.90;;
71042;SDS011;58696;52.134;5.500;2022-08-21T16:05:17;5.85;;;1.95;;
71042;SDS011;58696;52.134;5.500;2022-08-21T16:07:46;4.18;;;1.80;;
71042;SDS011;58696;52.134;5.500;2022-08-21T16:10:17;5.95;;;1.60;;
71042;SDS011;58696;52.134;5.500;2022-08-21T16:12:54;5.25;;;1.40;;
71042;SDS011;58696;52.134;5.500;2022-08-21T16:15:24;5.45;;;1.88;;
71042;SDS011;58696;52.134;5.500;2022-08-21T16:17:54;8.30;;;2.00;;
71042;SDS011;58696;52.134;5.500;2022-08-21T16:20:23;9.80;;;2.22;;
71042;SDS011;58696;52.134;5.500;2022-08-21T16:22:53;5.65;;;1.80;;
71042;SDS011;58696;52.134;5.500;2022-08-21T16:25:27;5.57;;;1.88;;
71042;SDS011;58696;52.134;5.500;2022-08-21T16:27:58;5.05;;;1.63;;
71042;SDS011;58696;52.134;5.500;2022-08-21T16:30:30;4.25;;;1.70;;
71042;SDS011;58696;52.134;5.500;2022-08-21T16:35:25;7.72;;;1.60;;
71042;SDS011;58696;52.134;5.500;2022-08-21T16:40:22;7.35;;;1.67;;
71042;SDS011;58696;52.134;5.500;2022-08-21T16:42:51;6.70;;;2.05;;
71042;SDS011;58696;52.134;5.500;2022-08-21T16:45:23;7.97;;;2.08;;
71042;SDS011;58696;52.134;5.500;2022-08-21T16:47:55;6.88;;;1.65;;
71042;SDS011;58696;52.134;5.500;2022-08-21T16:50:23;5.28;;;1.58;;